createdAt,value
2018-12-04T09:25:07.097Z,994.48
2018-12-04T09:26:07.056Z,994.44
2018-12-04T09:27:07.067Z,994.50
2018-12-04T09:28:07.054Z,994.57
2018-12-04T09:29:07.037Z,994.58
2018-12-04T09:30:07.015Z,994.60
2018-12-04T09:31:06.979Z,994.59
2018-12-04T09:32:07.001Z,994.65
2018-12-04T09:33:06.963Z,994.71
2018-12-04T09:34:06.951Z,994.70
2018-12-04T09:35:07.066Z,994.75
2018-12-04T09:36:06.920Z,994.72
2018-12-04T09:37:06.912Z,994.79
2018-12-04T09:38:06.922Z,994.80
2018-12-04T09:39:06.892Z,994.89
2018-12-04T09:40:06.898Z,994.89
2018-12-04T09:41:50.119Z,994.89
2018-12-04T09:42:50.135Z,994.89
2018-12-04T09:43:50.120Z,994.89
2018-12-04T09:44:50.085Z,994.89
2018-12-04T09:45:50.075Z,994.94
2018-12-04T09:46:50.080Z,995.00
2018-12-04T09:47:50.052Z,995.08
2018-12-04T09:48:50.073Z,995.08
2018-12-04T09:49:50.061Z,995.07
2018-12-04T09:50:50.021Z,995.05
2018-12-04T09:51:50.016Z,995.13
2018-12-04T09:52:50.002Z,995.10
2018-12-04T09:53:52.178Z,995.14
2018-12-04T09:54:49.983Z,995.11
2018-12-04T09:55:50.050Z,995.11
2018-12-04T09:56:49.949Z,995.11
2018-12-04T09:57:49.943Z,995.13
2018-12-04T09:58:49.954Z,995.10
2018-12-04T09:59:49.917Z,995.12
2018-12-04T10:00:49.936Z,995.18
2018-12-04T10:01:49.912Z,995.20
2018-12-04T10:02:49.881Z,995.19
2018-12-04T10:03:49.880Z,995.14
2018-12-04T10:04:49.872Z,995.15
2018-12-04T10:05:49.888Z,995.20
2018-12-04T10:06:49.855Z,995.21
2018-12-04T10:07:49.823Z,995.22
2018-12-04T10:08:49.817Z,995.21
2018-12-04T10:09:49.802Z,995.23
2018-12-04T10:10:49.823Z,995.25
2018-12-04T10:11:49.834Z,995.33
2018-12-04T10:12:49.909Z,995.40
2018-12-04T10:13:49.760Z,995.40
2018-12-04T10:14:49.745Z,995.51
2018-12-04T10:15:49.790Z,995.50
2018-12-04T10:16:49.774Z,995.50
2018-12-04T10:17:49.731Z,995.52
2018-12-04T10:18:49.710Z,995.48
2018-12-04T10:19:49.688Z,995.53
2018-12-04T10:20:49.682Z,995.54
2018-12-04T10:21:51.486Z,995.51
2018-12-04T10:22:49.657Z,995.52
2018-12-04T10:23:49.709Z,995.51
2018-12-04T10:24:49.628Z,995.46
2018-12-04T10:25:49.660Z,995.55
2018-12-04T10:26:49.684Z,995.52
2018-12-04T10:27:49.608Z,995.53
2018-12-04T10:28:49.601Z,995.52
2018-12-04T10:29:50.004Z,995.47
2018-12-04T10:30:49.585Z,995.50
2018-12-04T10:31:55.787Z,995.55
2018-12-04T10:32:50.538Z,995.50
2018-12-04T10:33:49.533Z,995.53
2018-12-04T10:34:50.378Z,995.58
2018-12-04T10:35:49.653Z,995.60
2018-12-04T10:36:55.518Z,995.59
2018-12-04T10:37:49.482Z,995.60
2018-12-04T10:38:49.475Z,995.64
2018-12-04T10:39:49.489Z,995.60
2018-12-04T10:40:49.453Z,995.64
2018-12-04T10:41:49.453Z,995.70
2018-12-04T10:42:49.450Z,995.67
2018-12-04T10:43:49.411Z,995.64
2018-12-04T10:44:49.410Z,995.63
2018-12-04T10:45:49.393Z,995.69
2018-12-04T10:46:49.384Z,995.66
2018-12-04T10:47:49.404Z,995.66
2018-12-04T10:48:49.429Z,995.71
2018-12-04T10:49:49.373Z,995.73
2018-12-04T10:50:49.340Z,995.69
2018-12-04T10:51:49.332Z,995.67
2018-12-04T10:52:49.340Z,995.69
2018-12-04T10:53:49.301Z,995.75
2018-12-04T10:54:49.281Z,995.70
2018-12-04T10:55:49.296Z,995.76
2018-12-04T10:56:49.267Z,995.79
2018-12-04T10:57:49.310Z,995.78
2018-12-04T10:58:49.255Z,995.80
2018-12-04T10:59:49.251Z,995.84
2018-12-04T11:00:49.233Z,995.86
2018-12-04T11:01:49.220Z,995.85
2018-12-04T11:02:49.204Z,995.86
2018-12-04T11:03:49.189Z,995.85
2018-12-04T11:04:49.190Z,995.85
2018-12-04T11:05:49.152Z,995.82
2018-12-04T11:06:49.146Z,995.87
2018-12-04T11:07:49.149Z,995.86
2018-12-04T11:08:49.117Z,995.85
2018-12-04T11:09:49.152Z,995.87
2018-12-04T11:10:49.109Z,995.85
2018-12-04T11:11:49.089Z,995.89
2018-12-04T11:12:49.090Z,995.91
2018-12-04T11:13:49.067Z,995.91
2018-12-04T11:14:49.091Z,995.91
2018-12-04T11:15:49.042Z,995.87
2018-12-04T11:16:49.047Z,995.85
2018-12-04T11:17:49.014Z,995.91
2018-12-04T11:18:48.999Z,995.87
2018-12-04T11:19:49.027Z,995.87
2018-12-04T11:20:48.998Z,995.90
2018-12-04T11:21:48.982Z,995.91
2018-12-04T11:22:48.983Z,995.96
2018-12-04T11:23:48.948Z,995.94
2018-12-04T11:24:48.960Z,995.96
2018-12-04T11:25:48.914Z,995.95
2018-12-04T11:26:48.986Z,996.00
2018-12-04T11:27:48.973Z,996.02
2018-12-04T11:28:48.896Z,996.02
2018-12-04T11:29:48.860Z,996.01
2018-12-04T11:30:48.859Z,996.04
2018-12-04T11:31:48.901Z,996.08
2018-12-04T11:32:48.855Z,996.11
2018-12-04T11:33:48.814Z,996.07
2018-12-04T11:34:48.824Z,996.12
2018-12-04T11:35:48.825Z,996.12
2018-12-04T11:36:48.807Z,996.13
2018-12-04T11:37:48.799Z,996.16
2018-12-04T11:38:48.751Z,996.17
2018-12-04T11:39:48.755Z,996.19
2018-12-04T11:40:48.756Z,996.18
2018-12-04T11:41:48.728Z,996.20
2018-12-04T11:42:48.749Z,996.19
2018-12-04T11:43:48.690Z,996.17
2018-12-04T11:44:48.694Z,996.21
2018-12-04T11:45:48.689Z,996.24
2018-12-04T11:46:48.667Z,996.20
2018-12-04T11:47:48.684Z,996.21
2018-12-04T11:48:48.676Z,996.22
2018-12-04T11:49:48.628Z,996.29
2018-12-04T11:50:48.625Z,996.29
2018-12-04T11:51:48.591Z,996.28
2018-12-04T11:52:48.621Z,996.28
2018-12-04T11:53:48.606Z,996.30
2018-12-04T11:54:48.596Z,996.33
2018-12-04T11:55:48.611Z,996.32
2018-12-04T11:56:48.541Z,996.33
2018-12-04T11:57:48.549Z,996.30
2018-12-04T11:58:48.516Z,996.29
2018-12-04T11:59:48.496Z,996.31
2018-12-04T12:00:48.496Z,996.32
2018-12-04T12:01:48.468Z,996.38
2018-12-04T12:02:48.489Z,996.34
2018-12-04T12:03:48.450Z,996.35
2018-12-04T12:04:48.486Z,996.34
2018-12-04T12:05:48.436Z,996.36
2018-12-04T12:06:48.427Z,996.37
2018-12-04T12:07:48.429Z,996.39
2018-12-04T12:08:48.427Z,996.44
2018-12-04T12:09:48.392Z,996.41
2018-12-04T12:10:48.382Z,996.43
2018-12-04T12:11:48.347Z,996.39
2018-12-04T12:12:48.331Z,996.39
2018-12-04T12:13:48.322Z,996.40
2018-12-04T12:14:48.307Z,996.40
2018-12-04T12:15:48.345Z,996.43
2018-12-04T12:16:48.285Z,996.37
2018-12-04T12:17:48.271Z,996.42
2018-12-04T12:18:48.290Z,996.42
2018-12-04T12:19:48.249Z,996.35
2018-12-04T12:20:48.236Z,996.32
2018-12-04T12:21:48.225Z,996.35
2018-12-04T12:22:48.235Z,996.37
2018-12-04T12:23:48.205Z,996.37
2018-12-04T12:24:48.188Z,996.44
2018-12-04T12:25:48.178Z,996.46
2018-12-04T12:26:48.164Z,996.42
2018-12-04T12:27:48.190Z,996.43
2018-12-04T12:28:48.160Z,996.40
2018-12-04T12:29:51.469Z,996.40
2018-12-04T12:30:48.121Z,996.38
2018-12-04T12:31:48.099Z,996.37
2018-12-04T12:32:48.090Z,996.37
2018-12-04T12:33:48.113Z,996.45
2018-12-04T12:34:48.062Z,996.44
2018-12-04T12:35:48.058Z,996.47
2018-12-04T12:36:48.050Z,996.45
2018-12-04T12:37:48.026Z,996.41
2018-12-04T12:38:48.049Z,996.46
2018-12-04T12:39:48.004Z,996.47
2018-12-04T12:40:47.997Z,996.51
2018-12-04T12:41:47.976Z,996.49
2018-12-04T12:42:47.970Z,996.52
2018-12-04T12:43:47.975Z,996.54
2018-12-04T12:44:48.006Z,996.51
2018-12-04T12:45:47.937Z,996.57
2018-12-04T12:46:47.921Z,996.59
2018-12-04T12:47:47.905Z,996.57
2018-12-04T12:48:47.893Z,996.63
2018-12-04T12:49:47.910Z,996.64
2018-12-04T12:50:47.873Z,996.72
2018-12-04T12:51:47.865Z,996.75
2018-12-04T12:52:47.852Z,996.83
2018-12-04T12:53:47.837Z,996.79
2018-12-04T12:54:47.847Z,996.82
2018-12-04T12:55:47.839Z,996.81
2018-12-04T12:56:47.803Z,996.77
2018-12-04T12:57:47.784Z,996.83
2018-12-04T12:58:47.771Z,996.87
2018-12-04T12:59:47.791Z,996.84
2018-12-04T13:00:47.754Z,996.90
2018-12-04T13:01:47.747Z,996.85
2018-12-04T13:02:47.749Z,996.90
2018-12-04T13:03:47.719Z,996.93
2018-12-04T13:04:47.803Z,996.92
2018-12-04T13:05:47.722Z,996.96
2018-12-04T13:06:47.684Z,997.03
2018-12-04T13:07:47.664Z,996.98
2018-12-04T13:08:47.672Z,997.01
2018-12-04T13:09:47.652Z,997.01
2018-12-04T13:10:47.678Z,996.97
2018-12-04T13:11:47.624Z,996.98
2018-12-04T13:12:47.615Z,996.98
2018-12-04T13:13:47.607Z,996.97
2018-12-04T13:14:47.580Z,997.04
2018-12-04T13:15:47.610Z,997.03
2018-12-04T13:16:47.559Z,997.07
2018-12-04T13:17:47.556Z,997.11
2018-12-04T13:18:47.541Z,997.02
2018-12-04T13:19:47.530Z,997.05
2018-12-04T13:20:47.550Z,997.06
2018-12-04T13:21:47.497Z,997.06
2018-12-04T13:22:47.508Z,997.01
2018-12-04T13:23:47.471Z,996.98
2018-12-04T13:24:47.462Z,997.06
2018-12-04T13:25:47.455Z,997.07
2018-12-04T13:26:47.469Z,997.04
2018-12-04T13:27:47.444Z,997.05
2018-12-04T13:28:47.411Z,997.13
2018-12-04T13:29:47.402Z,997.13
2018-12-04T13:30:47.390Z,997.14
2018-12-04T13:31:47.409Z,997.19
2018-12-04T13:32:47.364Z,997.20
2018-12-04T13:33:47.381Z,997.20
2018-12-04T13:34:47.344Z,997.18
2018-12-04T13:35:47.331Z,997.26
2018-12-04T13:36:47.328Z,997.22
2018-12-04T13:37:47.336Z,997.28
2018-12-04T13:38:47.304Z,997.28
2018-12-04T13:39:47.282Z,997.29
2018-12-04T13:40:47.271Z,997.25
2018-12-04T13:41:47.284Z,997.27
2018-12-04T13:42:47.301Z,997.28
2018-12-04T13:43:47.238Z,997.30
2018-12-04T13:44:47.226Z,997.35
2018-12-04T13:45:47.265Z,997.31
2018-12-04T13:46:47.203Z,997.35
2018-12-04T13:47:47.203Z,997.37
2018-12-04T13:48:47.184Z,997.35
2018-12-04T13:49:47.194Z,997.47
2018-12-04T13:50:47.177Z,997.47
2018-12-04T13:51:47.154Z,997.44
2018-12-04T13:52:47.156Z,997.46
2018-12-04T13:53:47.128Z,997.51
2018-12-04T13:54:47.153Z,997.47
2018-12-04T13:55:47.107Z,997.55
2018-12-04T13:56:47.109Z,997.51
2018-12-04T13:57:50.705Z,997.57
2018-12-04T13:58:48.974Z,997.53
2018-12-04T13:59:47.206Z,997.58
2018-12-04T14:00:47.061Z,997.57
2018-12-04T14:01:47.101Z,997.58
2018-12-04T14:02:47.036Z,997.65
2018-12-04T14:03:47.007Z,997.68
2018-12-04T14:04:47.032Z,997.69
2018-12-04T14:05:47.008Z,997.70
2018-12-04T14:06:46.982Z,997.68
2018-12-04T14:07:46.963Z,997.71
2018-12-04T14:08:47.010Z,997.71
2018-12-04T14:09:46.942Z,997.76
2018-12-04T14:10:46.932Z,997.82
2018-12-04T14:11:46.915Z,997.78
2018-12-04T14:12:46.953Z,997.81
2018-12-04T14:13:46.923Z,997.86
2018-12-04T14:14:46.892Z,997.85
2018-12-04T14:15:46.896Z,997.88
2018-12-04T14:16:46.886Z,997.85
2018-12-04T14:17:46.850Z,997.83
2018-12-04T14:18:46.848Z,997.86
2018-12-04T14:19:46.854Z,997.88
2018-12-04T14:20:46.841Z,997.88
2018-12-04T14:21:46.805Z,997.91
2018-12-04T14:22:46.795Z,997.93
2018-12-04T14:23:46.779Z,997.93
2018-12-04T14:24:46.817Z,997.93
2018-12-04T14:25:46.768Z,997.92
2018-12-04T14:26:46.749Z,997.97
2018-12-04T14:27:49.237Z,997.94
2018-12-04T14:28:46.728Z,997.94
2018-12-04T14:29:46.759Z,997.89
2018-12-04T14:30:46.703Z,997.91
2018-12-04T14:31:46.699Z,998.03
2018-12-04T14:32:46.678Z,997.99
2018-12-04T14:33:46.693Z,998.00
2018-12-04T14:34:46.712Z,997.99
2018-12-04T14:35:46.673Z,998.01
2018-12-04T14:36:46.679Z,998.05
2018-12-04T14:37:46.621Z,998.05
2018-12-04T14:38:46.609Z,998.06
2018-12-04T14:39:46.637Z,998.07
2018-12-04T14:40:46.589Z,998.11
2018-12-04T14:41:46.574Z,998.12
2018-12-04T14:42:46.592Z,998.16
2018-12-04T14:43:46.556Z,998.16
2018-12-04T14:44:46.577Z,998.15
2018-12-04T14:45:46.548Z,998.22
2018-12-04T14:46:46.522Z,998.23
2018-12-04T14:47:46.520Z,998.29
2018-12-04T14:48:46.550Z,998.30
2018-12-04T14:49:46.512Z,998.30
2018-12-04T14:50:46.796Z,998.30
2018-12-04T14:51:46.492Z,998.30
2018-12-04T14:52:46.457Z,998.36
2018-12-04T14:53:46.541Z,998.33
2018-12-04T14:54:46.439Z,998.27
2018-12-04T14:55:46.489Z,998.37
2018-12-04T14:56:46.460Z,998.37
2018-12-04T14:57:46.402Z,998.41
2018-12-04T14:58:46.402Z,998.33
2018-12-04T14:59:46.415Z,998.36
2018-12-04T15:00:46.362Z,998.38
2018-12-04T15:01:46.475Z,998.35
2018-12-04T15:02:46.660Z,998.44
2018-12-04T15:03:46.460Z,998.53
2018-12-04T15:04:46.879Z,998.56
2018-12-04T15:05:46.374Z,998.55
2018-12-04T15:06:46.332Z,998.61
2018-12-04T15:07:46.306Z,998.67
2018-12-04T15:08:46.280Z,998.63
2018-12-04T15:09:46.291Z,998.63
2018-12-04T15:10:46.275Z,998.58
2018-12-04T15:11:46.279Z,998.65
2018-12-04T15:12:46.257Z,998.61
2018-12-04T15:13:46.253Z,998.56
2018-12-04T15:14:46.248Z,998.53
2018-12-04T15:15:46.201Z,998.64
2018-12-04T15:16:46.215Z,998.64
2018-12-04T15:17:46.319Z,998.69
2018-12-04T15:18:46.218Z,998.65
2018-12-04T15:19:46.180Z,998.69
2018-12-04T15:20:46.169Z,998.67
2018-12-04T15:21:46.161Z,998.72
2018-12-04T15:22:46.177Z,998.73
2018-12-04T15:23:46.145Z,998.75
2018-12-04T15:24:46.117Z,998.79
2018-12-04T15:25:46.173Z,998.73
2018-12-04T15:26:46.078Z,998.80
2018-12-04T15:27:46.087Z,998.85
2018-12-04T15:28:46.094Z,998.80
2018-12-04T15:29:46.047Z,998.85
2018-12-04T15:30:46.040Z,998.83
2018-12-04T15:31:46.037Z,998.86
2018-12-04T15:32:46.054Z,998.91
2018-12-04T15:33:46.045Z,998.93
2018-12-04T15:34:45.997Z,998.94
2018-12-04T15:35:46.030Z,998.96
2018-12-04T15:36:46.000Z,999.00
2018-12-04T15:37:45.990Z,998.99
2018-12-04T15:38:45.997Z,999.01
2018-12-04T15:39:45.984Z,998.98
2018-12-04T15:40:45.995Z,999.00
2018-12-04T15:41:46.323Z,999.06
2018-12-04T15:42:45.966Z,999.02
2018-12-04T15:43:45.970Z,999.05
2018-12-04T15:44:45.897Z,999.10
2018-12-04T15:45:45.916Z,999.11
2018-12-04T15:46:45.925Z,999.08
2018-12-04T15:47:45.886Z,999.17
2018-12-04T15:48:45.883Z,999.11
2018-12-04T15:49:45.911Z,999.09
2018-12-04T15:50:45.835Z,999.13
2018-12-04T15:51:45.833Z,999.09
2018-12-04T15:52:45.845Z,999.08
2018-12-04T15:53:45.850Z,999.10
2018-12-04T15:54:45.871Z,999.10
2018-12-04T15:55:45.785Z,999.07
2018-12-04T15:56:45.783Z,999.08
2018-12-04T15:57:45.771Z,999.13
2018-12-04T15:58:45.748Z,999.10
2018-12-04T15:59:45.765Z,999.13
2018-12-04T16:00:45.768Z,999.12
2018-12-04T16:01:45.722Z,999.12
2018-12-04T16:02:45.706Z,999.18
2018-12-04T16:03:45.705Z,999.14
2018-12-04T16:04:45.687Z,999.13
2018-12-04T16:05:45.707Z,999.15
2018-12-04T16:06:45.709Z,999.20
2018-12-04T16:07:45.657Z,999.17
2018-12-04T16:08:45.651Z,999.19
2018-12-04T16:09:45.638Z,999.22
2018-12-04T16:10:45.636Z,999.22
2018-12-04T16:11:45.718Z,999.22
2018-12-04T16:12:45.607Z,999.18
2018-12-04T16:13:45.605Z,999.24
2018-12-04T16:14:45.592Z,999.22
2018-12-04T16:15:45.582Z,999.23
2018-12-04T16:16:45.592Z,999.30
2018-12-04T16:17:45.562Z,999.27
2018-12-04T16:18:45.541Z,999.31
2018-12-04T16:19:45.532Z,999.26
2018-12-04T16:20:45.536Z,999.27
2018-12-04T16:21:45.538Z,999.33
2018-12-04T16:22:45.504Z,999.33
2018-12-04T16:23:45.503Z,999.39
2018-12-04T16:24:45.521Z,999.39
2018-12-04T16:25:45.509Z,999.45
2018-12-04T16:26:45.466Z,999.46
2018-12-04T16:27:45.450Z,999.53
2018-12-04T16:28:45.450Z,999.49
2018-12-04T16:29:45.430Z,999.45
2018-12-04T16:30:45.442Z,999.49
2018-12-04T16:31:45.415Z,999.45
2018-12-04T16:32:45.403Z,999.52
2018-12-04T16:33:45.389Z,999.51
2018-12-04T16:34:45.376Z,999.51
2018-12-04T16:35:45.391Z,999.54
2018-12-04T16:36:45.366Z,999.54
2018-12-04T16:37:45.353Z,999.56
2018-12-04T16:38:45.350Z,999.54
2018-12-04T16:39:45.364Z,999.56
2018-12-04T16:40:45.318Z,999.51
2018-12-04T16:41:45.307Z,999.58
2018-12-04T16:42:45.297Z,999.62
2018-12-04T16:43:45.285Z,999.62
2018-12-04T16:44:45.300Z,999.60
2018-12-04T16:45:45.263Z,999.56
2018-12-04T16:46:45.251Z,999.59
2018-12-04T16:47:45.244Z,999.57
2018-12-04T16:48:45.240Z,999.52
2018-12-04T16:49:45.251Z,999.55
2018-12-04T16:50:45.206Z,999.58
2018-12-04T16:51:45.199Z,999.59
2018-12-04T16:52:45.191Z,999.59
2018-12-04T16:53:45.174Z,999.65
2018-12-04T16:54:45.194Z,999.71
2018-12-04T16:55:45.155Z,999.69
2018-12-04T16:56:45.143Z,999.69
2018-12-04T16:57:45.132Z,999.76
2018-12-04T16:58:45.123Z,999.78
2018-12-04T16:59:45.139Z,999.78
2018-12-04T17:00:45.110Z,999.75
2018-12-04T17:01:45.090Z,999.78
2018-12-04T17:02:45.088Z,999.77
2018-12-04T17:03:45.114Z,999.80
2018-12-04T17:04:45.086Z,999.78
2018-12-04T17:05:45.079Z,999.78
2018-12-04T17:06:45.044Z,999.78
2018-12-04T17:07:45.037Z,999.77
2018-12-04T17:08:45.025Z,999.75
2018-12-04T17:09:45.004Z,999.76
2018-12-04T17:10:45.036Z,999.76
2018-12-04T17:11:44.982Z,999.76
2018-12-04T17:12:44.972Z,999.78
2018-12-04T17:13:44.968Z,999.74
2018-12-04T17:14:44.958Z,999.78
2018-12-04T17:15:44.973Z,999.77
2018-12-04T17:16:44.928Z,999.79
2018-12-04T17:17:44.918Z,999.77
2018-12-04T17:18:44.939Z,999.78
2018-12-04T17:19:44.897Z,999.77
2018-12-04T17:20:44.884Z,999.80
2018-12-04T17:21:44.910Z,999.79
2018-12-04T17:22:44.869Z,999.83
2018-12-04T17:23:44.858Z,999.82
2018-12-04T17:24:44.844Z,999.85
2018-12-04T17:25:44.864Z,999.87
2018-12-04T17:26:44.830Z,999.84
2018-12-04T17:27:44.809Z,999.87
2018-12-04T17:28:44.796Z,999.90
2018-12-04T17:29:44.797Z,999.87
2018-12-04T17:30:44.805Z,999.92
2018-12-04T17:31:44.798Z,999.90
2018-12-04T17:32:44.757Z,999.88
2018-12-04T17:33:44.775Z,999.93
2018-12-04T17:34:44.744Z,999.94
2018-12-04T17:35:44.719Z,999.92
2018-12-04T17:36:44.712Z,1000.01
2018-12-04T17:37:44.706Z,1000.05
2018-12-04T17:38:44.728Z,1000.03
2018-12-04T17:39:44.679Z,1000.09
2018-12-04T17:40:44.668Z,1000.10
2018-12-04T17:41:44.682Z,1000.07
2018-12-04T17:42:44.676Z,1000.09
2018-12-04T17:43:44.638Z,1000.09
2018-12-04T17:44:44.623Z,1000.05
2018-12-04T17:45:44.613Z,999.98
2018-12-04T17:46:44.638Z,1000.06
2018-12-04T17:47:44.597Z,1000.03
2018-12-04T17:48:44.589Z,1000.03
2018-12-04T17:49:44.580Z,1000.03
2018-12-04T17:50:44.562Z,1000.02
2018-12-04T17:51:44.581Z,1000.03
2018-12-04T17:52:44.542Z,1000.07
2018-12-04T17:53:44.537Z,1000.05
2018-12-04T17:54:44.563Z,1000.07
2018-12-04T17:55:44.512Z,1000.06
2018-12-04T17:56:44.493Z,1000.09
2018-12-04T17:57:44.492Z,1000.12
2018-12-04T17:58:44.469Z,1000.07
2018-12-04T17:59:44.487Z,1000.12
2018-12-04T18:00:44.453Z,1000.10
2018-12-04T18:01:44.445Z,1000.18
2018-12-04T18:02:44.434Z,1000.14
2018-12-04T18:03:44.424Z,1000.17
2018-12-04T18:04:44.445Z,1000.23
2018-12-04T18:05:44.420Z,1000.22
2018-12-04T18:06:44.387Z,1000.21
2018-12-04T18:07:44.372Z,1000.17
2018-12-04T18:08:44.370Z,1000.22
2018-12-04T18:09:44.360Z,1000.24
2018-12-04T18:10:44.379Z,1000.25
2018-12-04T18:11:44.327Z,1000.17
2018-12-04T18:12:44.321Z,1000.24
2018-12-04T18:13:44.312Z,1000.26
2018-12-04T18:14:44.298Z,1000.20
2018-12-04T18:15:44.316Z,1000.24
2018-12-04T18:16:44.296Z,1000.25
2018-12-04T18:17:44.271Z,1000.25
2018-12-04T18:18:44.256Z,1000.23
2018-12-04T18:19:44.241Z,1000.22
2018-12-04T18:20:44.264Z,1000.26
2018-12-04T18:21:44.221Z,1000.28
2018-12-04T18:22:44.222Z,1000.23
2018-12-04T18:23:44.196Z,1000.27
2018-12-04T18:24:44.184Z,1000.26
2018-12-04T18:25:44.202Z,1000.29
2018-12-04T18:26:44.168Z,1000.31
2018-12-04T18:27:44.155Z,1000.33
2018-12-04T18:28:44.150Z,1000.33
2018-12-04T18:29:44.164Z,1000.32
2018-12-04T18:30:44.143Z,1000.37
2018-12-04T18:31:44.106Z,1000.34
2018-12-04T18:32:44.103Z,1000.35
2018-12-04T18:33:44.085Z,1000.39
2018-12-04T18:34:44.081Z,1000.42
2018-12-04T18:35:44.184Z,1000.42
2018-12-04T18:36:44.057Z,1000.44
2018-12-04T18:37:44.040Z,1000.43
2018-12-04T18:38:44.033Z,1000.46
2018-12-04T18:39:44.028Z,1000.49
2018-12-04T18:40:44.044Z,1000.53
2018-12-04T18:41:44.005Z,1000.49
2018-12-04T18:42:43.993Z,1000.51
2018-12-04T18:43:44.025Z,1000.49
2018-12-04T18:44:43.968Z,1000.47
2018-12-04T18:45:43.963Z,1000.40
2018-12-04T18:46:43.943Z,1000.47
2018-12-04T18:47:43.937Z,1000.44
2018-12-04T18:48:43.957Z,1000.49
2018-12-04T18:49:43.917Z,1000.50
2018-12-04T18:50:43.909Z,1000.52
2018-12-04T18:51:43.920Z,1000.48
2018-12-04T18:52:43.886Z,1000.43
2018-12-04T18:53:43.875Z,1000.43
2018-12-04T18:54:43.862Z,1000.42
2018-12-04T18:55:43.857Z,1000.47
2018-12-04T18:56:43.866Z,1000.52
2018-12-04T18:57:43.845Z,1000.51
2018-12-04T18:58:43.812Z,1000.56
2018-12-04T18:59:43.805Z,1000.50
2018-12-04T19:00:43.793Z,1000.63
2018-12-04T19:01:43.785Z,1000.58
2018-12-04T19:02:43.802Z,1000.61
2018-12-04T19:03:43.758Z,1000.62
2018-12-04T19:04:43.746Z,1000.61
2018-12-04T19:05:43.742Z,1000.61
2018-12-04T19:06:43.745Z,1000.63
2018-12-04T19:07:43.746Z,1000.62
2018-12-04T19:08:43.702Z,1000.65
2018-12-04T19:09:43.692Z,1000.63
2018-12-04T19:10:43.680Z,1000.61
2018-12-04T19:11:43.670Z,1000.60
2018-12-04T19:12:43.690Z,1000.57
2018-12-04T19:13:43.651Z,1000.55
2018-12-04T19:14:43.649Z,1000.52
2018-12-04T19:15:43.627Z,1000.54
2018-12-04T19:16:43.617Z,1000.53
2018-12-04T19:17:43.654Z,1000.54
2018-12-04T19:18:43.596Z,1000.56
2018-12-04T19:19:43.585Z,1000.59
2018-12-04T19:20:43.565Z,1000.58
2018-12-04T19:21:43.562Z,1000.61
2018-12-04T19:22:43.579Z,1000.65
2018-12-04T19:23:43.557Z,1000.67
2018-12-04T19:24:43.521Z,1000.74
2018-12-04T19:25:43.520Z,1000.72
2018-12-04T19:26:43.510Z,1000.71
2018-12-04T19:27:43.495Z,1000.77
2018-12-04T19:28:43.512Z,1000.77
2018-12-04T19:29:43.466Z,1000.81
2018-12-04T19:30:43.457Z,1000.85
2018-12-04T19:31:43.448Z,1000.81
2018-12-04T19:32:43.467Z,1000.86
2018-12-04T19:33:43.432Z,1000.89
2018-12-04T19:34:43.418Z,1000.85
2018-12-04T19:35:43.419Z,1000.83
2018-12-04T19:36:43.388Z,1000.81
2018-12-04T19:37:43.410Z,1000.89
2018-12-04T19:38:43.370Z,1000.88
2018-12-04T19:39:43.353Z,1000.85
2018-12-04T19:40:43.345Z,1000.85
2018-12-04T19:41:43.345Z,1000.85
2018-12-04T19:42:43.346Z,1000.90
2018-12-04T19:43:43.313Z,1000.87
2018-12-04T19:44:43.306Z,1000.86
2018-12-04T19:45:43.288Z,1000.88
2018-12-04T19:46:43.320Z,1000.92
2018-12-04T19:47:43.269Z,1000.84
2018-12-04T19:48:43.266Z,1000.87
2018-12-04T19:49:43.243Z,1000.89
2018-12-04T19:50:43.237Z,1000.89
2018-12-04T19:51:43.282Z,1000.88
2018-12-04T19:52:43.211Z,1000.89
2018-12-04T19:53:43.198Z,1000.94
2018-12-04T19:54:43.194Z,1000.98
2018-12-04T19:55:43.193Z,1000.99
2018-12-04T19:56:43.199Z,1000.98
2018-12-04T19:57:43.160Z,1000.98
2018-12-04T19:58:43.145Z,1000.97
2018-12-04T19:59:43.131Z,1000.99
2018-12-04T20:00:43.120Z,1000.97
2018-12-04T20:01:43.133Z,1000.97
2018-12-04T20:02:43.105Z,1000.98
2018-12-04T20:03:43.135Z,1001.03
2018-12-04T20:04:43.107Z,1001.03
2018-12-04T20:05:43.067Z,1001.00
2018-12-04T20:06:43.057Z,1001.10
2018-12-04T20:07:43.049Z,1001.14
2018-12-04T20:08:43.031Z,1001.10
2018-12-04T20:09:43.066Z,1001.17
2018-12-04T20:10:43.019Z,1001.12
2018-12-04T20:11:43.005Z,1001.20
2018-12-04T20:12:42.988Z,1001.19
2018-12-04T20:13:42.981Z,1001.19
2018-12-04T20:14:42.989Z,1001.24
2018-12-04T20:15:42.959Z,1001.26
2018-12-04T20:16:42.947Z,1001.24
2018-12-04T20:17:42.932Z,1001.27
2018-12-04T20:18:42.935Z,1001.24
2018-12-04T20:19:42.940Z,1001.18
2018-12-04T20:20:42.904Z,1001.26
2018-12-04T20:21:42.889Z,1001.28
2018-12-04T20:22:42.878Z,1001.31
2018-12-04T20:23:42.864Z,1001.27
2018-12-04T20:24:42.881Z,1001.28
2018-12-04T20:25:42.876Z,1001.26
2018-12-04T20:26:42.834Z,1001.32
2018-12-04T20:27:42.821Z,1001.33
2018-12-04T20:28:42.829Z,1001.35
2018-12-04T20:29:42.799Z,1001.35
2018-12-04T20:30:42.816Z,1001.35
2018-12-04T20:31:42.804Z,1001.38
2018-12-04T20:32:42.772Z,1001.35
2018-12-04T20:33:42.756Z,1001.31
2018-12-04T20:34:42.743Z,1001.30
2018-12-04T20:35:42.762Z,1001.31
2018-12-04T20:36:42.724Z,1001.27
2018-12-04T20:37:42.710Z,1001.32
2018-12-04T20:38:42.705Z,1001.39
2018-12-04T20:39:42.720Z,1001.34
2018-12-04T20:40:42.682Z,1001.38
2018-12-04T20:41:42.664Z,1001.36
2018-12-04T20:42:42.659Z,1001.41
2018-12-04T20:43:42.644Z,1001.38
2018-12-04T20:44:42.663Z,1001.42
2018-12-04T20:45:42.631Z,1001.43
2018-12-04T20:46:42.627Z,1001.45
2018-12-04T20:47:42.625Z,1001.46
2018-12-04T20:48:42.593Z,1001.43
2018-12-04T20:49:42.606Z,1001.46
2018-12-04T20:50:42.571Z,1001.48
2018-12-04T20:51:42.560Z,1001.51
2018-12-04T20:52:42.579Z,1001.52
2018-12-04T20:53:42.550Z,1001.54
2018-12-04T20:54:42.521Z,1001.58
2018-12-04T20:55:42.516Z,1001.53
2018-12-04T20:56:42.511Z,1001.54
2018-12-04T20:57:42.518Z,1001.54
2018-12-04T20:58:42.488Z,1001.50
2018-12-04T20:59:42.469Z,1001.51
2018-12-04T21:00:42.463Z,1001.53
2018-12-04T21:01:42.444Z,1001.50
2018-12-04T21:02:42.462Z,1001.56
2018-12-04T21:03:42.424Z,1001.52
2018-12-04T21:04:42.433Z,1001.57
2018-12-04T21:05:42.411Z,1001.56
2018-12-04T21:06:42.419Z,1001.60
2018-12-04T21:07:42.385Z,1001.60
2018-12-04T21:08:42.366Z,1001.64
2018-12-04T21:09:42.353Z,1001.68
2018-12-04T21:10:42.341Z,1001.65
2018-12-04T21:11:42.359Z,1001.66
2018-12-04T21:12:42.332Z,1001.62
2018-12-04T21:13:42.308Z,1001.67
2018-12-04T21:14:42.298Z,1001.66
2018-12-04T21:15:42.290Z,1001.66
2018-12-04T21:16:42.301Z,1001.61
2018-12-04T21:17:42.265Z,1001.67
2018-12-04T21:18:42.309Z,1001.70
2018-12-04T21:19:42.339Z,1001.64
2018-12-04T21:20:42.245Z,1001.60
2018-12-04T21:21:42.253Z,1001.63
2018-12-04T21:22:42.217Z,1001.69
2018-12-04T21:23:42.202Z,1001.68
2018-12-04T21:24:42.195Z,1001.73
2018-12-04T21:25:42.183Z,1001.72
2018-12-04T21:26:42.213Z,1001.74
2018-12-04T21:27:42.155Z,1001.73
2018-12-04T21:28:42.150Z,1001.71
2018-12-04T21:29:42.136Z,1001.73
2018-12-04T21:30:42.126Z,1001.78
2018-12-04T21:31:42.146Z,1001.74
2018-12-04T21:32:42.111Z,1001.69
2018-12-04T21:33:42.090Z,1001.75
2018-12-04T21:34:48.189Z,1001.71
2018-12-04T21:35:43.070Z,1001.77
2018-12-04T21:36:42.081Z,1001.82
2018-12-04T21:37:42.044Z,1001.73
2018-12-04T21:38:42.032Z,1001.72
2018-12-04T21:39:42.045Z,1001.71
2018-12-04T21:40:42.017Z,1001.70
2018-12-04T21:41:41.998Z,1001.69
2018-12-04T21:42:41.986Z,1001.68
2018-12-04T21:43:42.002Z,1001.63
2018-12-04T21:44:41.964Z,1001.66
2018-12-04T21:45:41.970Z,1001.65